Map

Track Data

SID SEASON NUMBER BASIN SUBBASIN NAME ISO_TIME NATURE LAT LON WMO_WIND WMO_PRES WMO_AGENCY TRACK_TYPE DIST2LAND LANDFALL IFLAG USA_AGENCY USA_ATCF_ID USA_LAT USA_LON USA_RECORD USA_STATUS USA_WIND USA_PRES USA_SSHS USA_R34_NE USA_R34_SE USA_R34_SW USA_R34_NW USA_R50_NE USA_R50_SE USA_R50_SW USA_R50_NW USA_R64_NE USA_R64_SE USA_R64_SW USA_R64_NW USA_POCI USA_ROCI USA_RMW USA_EYE TOKYO_LAT TOKYO_LON TOKYO_GRADE TOKYO_WIND TOKYO_PRES TOKYO_R50_DIR TOKYO_R50_LONG TOKYO_R50_SHORT TOKYO_R30_DIR TOKYO_R30_LONG TOKYO_R30_SHORT TOKYO_LAND CMA_LAT CMA_LON CMA_CAT CMA_WIND CMA_PRES HKO_LAT HKO_LON HKO_CAT HKO_WIND HKO_PRES NEWDELHI_LAT NEWDELHI_LON NEWDELHI_GRADE NEWDELHI_WIND NEWDELHI_PRES NEWDELHI_CI NEWDELHI_DP NEWDELHI_POCI REUNION_LAT REUNION_LON REUNION_TYPE REUNION_WIND REUNION_PRES REUNION_TNUM REUNION_CI REUNION_RMW REUNION_R34_NE REUNION_R34_SE REUNION_R34_SW REUNION_R34_NW REUNION_R50_NE REUNION_R50_SE REUNION_R50_SW REUNION_R50_NW REUNION_R64_NE REUNION_R64_SE REUNION_R64_SW REUNION_R64_NW BOM_LAT BOM_LON BOM_TYPE BOM_WIND BOM_PRES BOM_TNUM BOM_CI BOM_RMW BOM_R34_NE BOM_R34_SE BOM_R34_SW BOM_R34_NW BOM_R50_NE BOM_R50_SE BOM_R50_SW BOM_R50_NW BOM_R64_NE BOM_R64_SE BOM_R64_SW BOM_R64_NW BOM_ROCI BOM_POCI BOM_EYE BOM_POS_METHOD BOM_PRES_METHOD NADI_LAT NADI_LON NADI_CAT NADI_WIND NADI_PRES WELLINGTON_LAT WELLINGTON_LON WELLINGTON_WIND WELLINGTON_PRES DS824_LAT DS824_LON DS824_STAGE DS824_WIND DS824_PRES TD9636_LAT TD9636_LON TD9636_STAGE TD9636_WIND TD9636_PRES TD9635_LAT TD9635_LON TD9635_WIND TD9635_PRES TD9635_ROCI NEUMANN_LAT NEUMANN_LON NEUMANN_CLASS NEUMANN_WIND NEUMANN_PRES MLC_LAT MLC_LON MLC_CLASS MLC_WIND MLC_PRES USA_GUST BOM_GUST BOM_GUST_PER REUNION_GUST REUNION_GUST_PER USA_SEAHGT USA_SEARAD_NE USA_SEARAD_SE USA_SEARAD_SW USA_SEARAD_NW STORM_SPEED STORM_DIR
1917242N16316 1917 36 NA NA NOT_NAMED 1917-08-30 06:00:00 TS 15.5000 -44.5000 60 hurdat_atl main 1454 1427 O_____________ hurdat_atl AL031917 15.5000 -44.5000 TS 60 0 15 289
1917242N16316 1917 36 NA NA NOT_NAMED 1917-08-30 09:00:00 TS 15.7504 -45.2397 main 1436 1408 P_____________ AL031917 15.7504 -45.2397 TS 60 0 15 289
1917242N16316 1917 36 NA NA NOT_NAMED 1917-08-30 12:00:00 TS 16.0000 -46.0000 60 hurdat_atl main 1408 1390 O_____________ hurdat_atl AL031917 16.0000 -46.0000 TS 60 0 16 288
1917242N16316 1917 36 NA NA NOT_NAMED 1917-08-30 15:00:00 TS 16.2498 -46.7927 main 1385 1375 P_____________ AL031917 16.2498 -46.7927 TS 60 0 16 288
1917242N16316 1917 36 NA NA NOT_NAMED 1917-08-30 18:00:00 TS 16.5000 -47.6000 60 hurdat_atl main 1376 1363 O_____________ hurdat_atl AL031917 16.5000 -47.6000 TS 60 0 16 288
1917242N16316 1917 36 NA NA NOT_NAMED 1917-08-30 21:00:00 TS 16.7498 -48.4077 main 1363 1355 P_____________ AL031917 16.7498 -48.4077 TS 60 0 16 288
1917242N16316 1917 36 NA NA NOT_NAMED 1917-08-31 00:00:00 TS 17.0000 -49.2000 60 hurdat_atl main 1357 1349 O_____________ hurdat_atl AL031917 17.0000 -49.2000 TS 60 0 16 288
1917242N16316 1917 36 NA NA NOT_NAMED 1917-08-31 03:00:00 TS 17.2498 -49.9727 main 1345 1345 P_____________ AL031917 17.2498 -49.9727 TS 62 0 15 289
1917242N16316 1917 36 NA NA NOT_NAMED 1917-08-31 06:00:00 TS 17.5000 -50.7000 65 hurdat_atl main 1346 1297 O_____________ hurdat_atl AL031917 17.5000 -50.7000 HU 65 1 14 290
1917242N16316 1917 36 NA NA NOT_NAMED 1917-08-31 09:00:00 TS 17.7498 -51.3876 main 1297 1267 P_____________ AL031917 17.7498 -51.3876 HU 67 1 13 292
1917242N16316 1917 36 NA NA NOT_NAMED 1917-08-31 12:00:00 TS 18.0000 -52.0000 70 hurdat_atl main 1267 1241 O_____________ hurdat_atl AL031917 18.0000 -52.0000 HU 70 1 12 295
1917242N16316 1917 36 NA NA NOT_NAMED 1917-08-31 15:00:00 TS 18.2497 -52.5227 main 1241 1225 P_____________ AL031917 18.2497 -52.5227 HU 70 1 11 298
1917242N16316 1917 36 NA NA NOT_NAMED 1917-08-31 18:00:00 TS 18.5000 -53.0000 70 hurdat_atl main 1225 1204 O_____________ hurdat_atl AL031917 18.5000 -53.0000 HU 70 1 11 298
1917242N16316 1917 36 NA NA NOT_NAMED 1917-08-31 21:00:00 TS 18.7424 -53.5002 main 1204 1193 P_____________ AL031917 18.7424 -53.5002 HU 72 1 11 298
1917242N16316 1917 36 NA NA NOT_NAMED 1917-09-01 00:00:00 TS 19.0000 -54.0000 75 hurdat_atl main 1195 1172 O_____________ hurdat_atl AL031917 19.0000 -54.0000 HU 75 1 11 300
1917242N16316 1917 36 NA NA NOT_NAMED 1917-09-01 03:00:00 TS 19.2924 -54.5001 main 1172 1122 P_____________ AL031917 19.2924 -54.5001 HU 77 1 11 302
1917242N16316 1917 36 NA NA NOT_NAMED 1917-09-01 06:00:00 TS 19.6000 -55.0000 80 hurdat_atl main 1122 1073 O_____________ hurdat_atl AL031917 19.6000 -55.0000 HU 80 1 11 303
1917242N16316 1917 36 NA NA NOT_NAMED 1917-09-01 09:00:00 TS 19.9074 -55.5001 main 1073 1027 P_____________ AL031917 19.9074 -55.5001 HU 80 1 11 303
1917242N16316 1917 36 NA NA NOT_NAMED 1917-09-01 12:00:00 TS 20.2000 -56.0000 80 hurdat_atl main 1027 980 O_____________ hurdat_atl AL031917 20.2000 -56.0000 HU 80 1 11 300
1917242N16316 1917 36 NA NA NOT_NAMED 1917-09-01 15:00:00 TS 20.4499 -56.5003 main 980 936 P_____________ AL031917 20.4499 -56.5003 HU 82 1 11 298
1917242N16316 1917 36 NA NA NOT_NAMED 1917-09-01 18:00:00 TS 20.7000 -57.0000 85 hurdat_atl main 936 896 O_____________ hurdat_atl AL031917 20.7000 -57.0000 HU 85 2 11 300
1917242N16316 1917 36 NA NA NOT_NAMED 1917-09-01 21:00:00 TS 20.9924 -57.5001 main 896 858 P_____________ AL031917 20.9924 -57.5001 HU 85 2 11 303
1917242N16316 1917 36 NA NA NOT_NAMED 1917-09-02 00:00:00 TS 21.3000 -58.0000 85 hurdat_atl main 858 823 O_____________ hurdat_atl AL031917 21.3000 -58.0000 HU 85 2 11 303
1917242N16316 1917 36 NA NA NOT_NAMED 1917-09-02 03:00:00 TS 21.5999 -58.5002 main 823 792 P_____________ AL031917 21.5999 -58.5002 HU 87 2 11 303
1917242N16316 1917 36 NA NA NOT_NAMED 1917-09-02 06:00:00 TS 21.9000 -59.0000 90 hurdat_atl main 792 764 O_____________ hurdat_atl AL031917 21.9000 -59.0000 HU 90 2 11 303
1917242N16316 1917 36 NA NA NOT_NAMED 1917-09-02 09:00:00 TS 22.1999 -59.5077 main 764 741 P_____________ AL031917 22.1999 -59.5077 HU 90 2 11 303
1917242N16316 1917 36 NA NA NOT_NAMED 1917-09-02 12:00:00 TS 22.5000 -60.0000 90 hurdat_atl main 741 723 O_____________ hurdat_atl AL031917 22.5000 -60.0000 HU 90 2 11 304
1917242N16316 1917 36 NA NA NOT_NAMED 1917-09-02 15:00:00 TS 22.7923 -60.4578 main 723 716 P_____________ AL031917 22.7923 -60.4578 HU 90 2 10 306
1917242N16316 1917 36 NA NA NOT_NAMED 1917-09-02 18:00:00 TS 23.1000 -60.9000 90 hurdat_atl main 717 710 O_____________ hurdat_atl AL031917 23.1000 -60.9000 HU 90 2 11 308
1917242N16316 1917 36 NA NA NOT_NAMED 1917-09-02 21:00:00 TS 23.4349 -61.3577 main 709 709 P_____________ AL031917 23.4349 -61.3577 HU 92 2 11 310
1917242N16316 1917 36 NA NA NOT_NAMED 1917-09-03 00:00:00 TS 23.8000 -61.8000 95 hurdat_atl main 720 719 O_____________ hurdat_atl AL031917 23.8000 -61.8000 HU 95 2 11 313
1917242N16316 1917 36 NA NA NOT_NAMED 1917-09-03 03:00:00 TS 24.1849 -62.2227 main 737 733 P_____________ AL031917 24.1849 -62.2227 HU 95 2 11 318
1917242N16316 1917 36 NA NA NOT_NAMED 1917-09-03 06:00:00 TS 24.6000 -62.6000 95 hurdat_atl main 759 759 O_____________ hurdat_atl AL031917 24.6000 -62.6000 HU 95 2 11 323
1917242N16316 1917 36 NA NA NOT_NAMED 1917-09-03 09:00:00 TS 25.0274 -62.9302 main 788 788 P_____________ AL031917 25.0274 -62.9302 HU 95 2 11 329
1917242N16316 1917 36 NA NA NOT_NAMED 1917-09-03 12:00:00 TS 25.5000 -63.2000 95 hurdat_atl main 831 831 O_____________ hurdat_atl AL031917 25.5000 -63.2000 HU 95 2 11 335
1917242N16316 1917 36 NA NA NOT_NAMED 1917-09-03 15:00:00 TS 26.0125 -63.4301 main 879 879 P_____________ AL031917 26.0125 -63.4301 HU 97 3 12 342
1917242N16316 1917 36 NA NA NOT_NAMED 1917-09-03 18:00:00 TS 26.6000 -63.6000 100 hurdat_atl main 939 939 O_____________ hurdat_atl AL031917 26.6000 -63.6000 HU 100 3 13 347
1917242N16316 1917 36 NA NA NOT_NAMED 1917-09-03 21:00:00 TS 27.2625 -63.7447 main 1013 1011 P_____________ AL031917 27.2625 -63.7447 HU 100 3 14 353
1917242N16316 1917 36 NA NA NOT_NAMED 1917-09-04 00:00:00 TS 28.0000 -63.8000 100 hurdat_atl main 1088 1088 O_____________ hurdat_atl AL031917 28.0000 -63.8000 HU 100 3 15 0
1917242N16316 1917 36 NA NA NOT_NAMED 1917-09-04 03:00:00 TS 28.7774 -63.7524 main 1176 1176 P_____________ AL031917 28.7774 -63.7524 HU 102 3 16 6
1917242N16316 1917 36 NA NA NOT_NAMED 1917-09-04 06:00:00 TS 29.6000 -63.6000 105 hurdat_atl main 1267 1267 O_____________ hurdat_atl AL031917 29.6000 -63.6000 HU 105 3 17 10
1917242N16316 1917 36 NA NA NOT_NAMED 1917-09-04 09:00:00 TS 30.4498 -63.4019 main 1274 1247 P_____________ AL031917 30.4498 -63.4019 HU 105 3 18 14
1917242N16316 1917 36 NA NA NOT_NAMED 1917-09-04 12:00:00 TS 31.3000 -63.1000 105 hurdat_atl main 1250 1242 O_____________ hurdat_atl AL031917 31.3000 -63.1000 HU 105 3 18 19
1917242N16316 1917 36 NA NA NOT_NAMED 1917-09-04 15:00:00 TS 32.1070 -62.7237 main 1247 1196 P_____________ AL031917 32.1070 -62.7237 HU 105 3 18 25
1917242N16316 1917 36 NA NA NOT_NAMED 1917-09-04 18:00:00 TS 32.9000 -62.2000 105 hurdat_atl main 1196 1145 O_____________ hurdat_atl AL031917 32.9000 -62.2000 HU 105 3 19 32
1917242N16316 1917 36 NA NA NOT_NAMED 1917-09-04 21:00:00 TS 33.6917 -61.5455 main 1139 1073 P_____________ AL031917 33.6917 -61.5455 HU 105 3 20 38
1917242N16316 1917 36 NA NA NOT_NAMED 1917-09-05 00:00:00 TS 34.5000 -60.7000 105 hurdat_atl main 1076 1030 O_____________ hurdat_atl AL031917 34.5000 -60.7000 HU 105 3 23 43
1917242N16316 1917 36 NA NA NOT_NAMED 1917-09-05 03:00:00 TS 35.3424 -59.6664 main 1030 991 P_____________ AL031917 35.3424 -59.6664 HU 102 3 25 47
1917242N16316 1917 36 NA NA NOT_NAMED 1917-09-05 06:00:00 TS 36.2000 -58.5000 100 hurdat_atl main 996 962 O_____________ hurdat_atl AL031917 36.2000 -58.5000 HU 100 3 25 48
1917242N16316 1917 36 NA NA NOT_NAMED 1917-09-05 09:00:00 TS 37.0026 -57.3606 main 962 914 P_____________ AL031917 37.0026 -57.3606 HU 97 3 26 48
1917242N16316 1917 36 NA NA NOT_NAMED 1917-09-05 12:00:00 TS 37.9000 -56.1000 95 hurdat_atl main 911 860 O_____________ hurdat_atl AL031917 37.9000 -56.1000 HU 95 2 29 48
1917242N16316 1917 36 NA NA NOT_NAMED 1917-09-05 15:00:00 TS 38.9683 -54.5854 main 849 722 P_____________ AL031917 38.9683 -54.5854 HU 92 2 33 46
1917242N16316 1917 36 NA NA NOT_NAMED 1917-09-05 18:00:00 TS 40.2000 -53.0000 90 hurdat_atl main 711 590 O_____________ hurdat_atl AL031917 40.2000 -53.0000 HU 90 2 35 43
1917242N16316 1917 36 NA NA NOT_NAMED 1917-09-05 21:00:00 TS 41.5239 -51.5000 main 582 474 P_____________ AL031917 41.5239 -51.5000 HU 85 2 35 38
1917242N16316 1917 36 NA NA NOT_NAMED 1917-09-06 00:00:00 ET 43.0000 -50.1000 80 hurdat_atl main 468 406 O_____________ hurdat_atl AL031917 43.0000 -50.1000 EX 80 -4 36 32
1917242N16316 1917 36 NA NA NOT_NAMED 1917-09-06 03:00:00 ET 44.5938 -48.8528 main 400 393 P_____________ AL031917 44.5938 -48.8528 EX 75 -4 37 28
1917242N16316 1917 36 NA NA NOT_NAMED 1917-09-06 06:00:00 ET 46.3000 -47.6000 70 hurdat_atl main 400 400 O_____________ hurdat_atl AL031917 46.3000 -47.6000 EX 70 -4 39 29
1917242N16316 1917 36 NA NA NOT_NAMED 1917-09-06 09:00:00 ET 48.0561 -46.1191 main 487 487 P_____________ AL031917 48.0561 -46.1191 EX 62 -4 41 31
1917242N16316 1917 36 NA NA NOT_NAMED 1917-09-06 12:00:00 ET 49.8000 -44.5000 55 hurdat_atl main 631 631 O_____________ hurdat_atl AL031917 49.8000 -44.5000 EX 55 -4 40 32
1917242N16316 1917 36 NA NA NOT_NAMED 1917-09-06 15:00:00 ET 51.4494 -42.8060 main 789 789 P_____________ AL031917 51.4494 -42.8060 EX 52 -4 39 34
1917242N16316 1917 36 NA NA NOT_NAMED 1917-09-06 18:00:00 ET 53.0000 -41.0000 50 hurdat_atl main 796 672 O_____________ hurdat_atl AL031917 53.0000 -41.0000 EX 50 -4 37 37
1917242N16316 1917 36 NA NA NOT_NAMED 1917-09-06 21:00:00 ET 54.4342 -39.0585 main 674 600 P_____________ AL031917 54.4342 -39.0585 EX 50 -4 36 40
1917242N16316 1917 36 NA NA NOT_NAMED 1917-09-07 00:00:00 ET 55.8000 -37.0000 50 hurdat_atl main 595 572 O_____________ hurdat_atl AL031917 55.8000 -37.0000 EX 50 -4 36 41
1917242N16316 1917 36 NA NA NOT_NAMED 1917-09-07 03:00:00 ET 57.1705 -34.7768 main 574 574 P_____________ AL031917 57.1705 -34.7768 EX 50 -4 36 42
1917242N16316 1917 36 NA NA NOT_NAMED 1917-09-07 06:00:00 ET 58.5000 -32.5000 50 hurdat_atl main 622 605 O_____________ hurdat_atl AL031917 58.5000 -32.5000 EX 50 -4 35 42
1917242N16316 1917 36 NA NA NOT_NAMED 1917-09-07 09:00:00 ET 59.7965 -30.2720 main 593 423 P_____________ AL031917 59.7965 -30.2720 EX 47 -4 34 42
1917242N16316 1917 36 NA NA NOT_NAMED 1917-09-07 12:00:00 ET 61.0000 -28.0000 45 hurdat_atl main 411 249 O_____________ hurdat_atl AL031917 61.0000 -28.0000 EX 45 -4 32 45
1917242N16316 1917 36 NA NA NOT_NAMED 1917-09-07 15:00:00 ET 62.0554 -25.5807 main 237 101 P_____________ AL031917 62.0554 -25.5807 EX 42 -4 31 50
1917242N16316 1917 36 NA NA NOT_NAMED 1917-09-07 18:00:00 ET 63.0000 -23.0000 40 hurdat_atl main 89 O_____________ hurdat_atl AL031917 63.0000 -23.0000 EX 40 -4 30 51

About IBTrACS Database

This database is a web-friendly format of International Best Track Archive for Climate Stewardship (IBTrACS), a global best track data archive curated by NOAA dating back to 1842.

Updated: 2021-12-06